Time;durP1;ratioP1;P1;durP2;ratioP2;P2;SDS_P1;SDS_P2;PMS_P1;PMS_P2;Temp;Humidity;BMP_temperature;BMP_pressure;BME280_temperature;BME280_humidity;BME280_pressure;Samples;Min_cycle;Max_cycle;Signal;HPM_P1;HPM_P2
2021/04/29 00:02:21;;;;;;;8.50;5.60;;;15.40;44.20;;;;;;5053108;28;20472;-70
2021/04/29 00:04:48;;;;;;;10.13;5.90;;;15.40;44.50;;;;;;5052863;28;20939;-71
2021/04/29 00:07:14;;;;;;;24.10;6.37;;;15.40;44.90;;;;;;5052794;28;20944;-71
2021/04/29 00:09:40;;;;;;;8.00;5.67;;;15.40;44.80;;;;;;5052770;28;20935;-71
2021/04/29 00:12:08;;;;;;;7.60;5.80;;;15.50;44.70;;;;;;5052668;28;20501;-71
2021/04/29 00:14:35;;;;;;;12.43;5.27;;;15.50;44.70;;;;;;5053191;28;20445;-71
2021/04/29 00:17:01;;;;;;;12.93;5.80;;;15.60;44.70;;;;;;5057153;28;20468;-70
2021/04/29 00:19:28;;;;;;;10.10;5.47;;;15.60;44.80;;;;;;5057045;28;20481;-71
2021/04/29 00:21:54;;;;;;;9.23;6.20;;;15.70;44.90;;;;;;5057055;28;20523;-70
2021/04/29 00:24:21;;;;;;;6.43;4.90;;;15.80;44.90;;;;;;5057163;28;20472;-70
2021/04/29 00:26:47;;;;;;;16.63;6.40;;;15.90;44.40;;;;;;5056968;28;20449;-70
2021/04/29 00:29:13;;;;;;;10.43;5.70;;;16.00;44.20;;;;;;5056909;28;20464;-71
2021/04/29 00:31:40;;;;;;;13.07;5.20;;;16.00;43.70;;;;;;5057203;28;20452;-71
2021/04/29 00:34:06;;;;;;;9.10;5.60;;;16.00;43.40;;;;;;5056910;28;20559;-70
2021/04/29 00:36:33;;;;;;;7.50;4.80;;;16.10;43.50;;;;;;5056801;28;20445;-70
2021/04/29 00:38:59;;;;;;;6.73;4.97;;;16.10;43.10;;;;;;5056441;28;20838;-70
2021/04/29 00:41:25;;;;;;;10.20;5.13;;;16.10;43.30;;;;;;5056691;28;20445;-70
2021/04/29 00:43:51;;;;;;;7.77;5.10;;;16.10;43.00;;;;;;5056249;28;21013;-70
2021/04/29 00:46:18;;;;;;;7.20;5.87;;;16.20;42.90;;;;;;5056590;28;20502;-70
2021/04/29 00:48:45;;;;;;;8.33;4.80;;;16.20;42.80;;;;;;5056565;28;20441;-70
2021/04/29 00:51:14;;;;;;;4.83;3.90;;;16.20;43.10;;;;;;5056558;28;20442;-70
2021/04/29 00:53:42;;;;;;;6.03;4.47;;;16.20;43.60;;;;;;5056223;28;20486;-70
2021/04/29 00:56:09;;;;;;;7.00;4.20;;;16.20;43.60;;;;;;5056248;28;20536;-70
2021/04/29 00:58:36;;;;;;;7.47;4.23;;;16.10;44.00;;;;;;5056130;28;20432;-70
2021/04/29 01:01:03;;;;;;;6.80;4.50;;;16.10;44.20;;;;;;5056400;28;20476;-70
2021/04/29 01:03:35;;;;;;;11.20;5.00;;;16.10;44.80;;;;;;5056120;28;20476;-70
2021/04/29 01:06:06;;;;;;;5.50;4.60;;;16.00;45.20;;;;;;5055975;28;20441;-70
2021/04/29 01:08:39;;;;;;;7.37;4.13;;;15.90;45.50;;;;;;5056191;28;20430;-70
2021/04/29 01:11:13;;;;;;;11.73;4.90;;;15.90;46.40;;;;;;5056498;28;20441;-70
2021/04/29 01:13:43;;;;;;;15.37;4.83;;;15.90;46.20;;;;;;5056015;28;20473;-70
2021/04/29 01:16:11;;;;;;;7.87;5.43;;;15.80;46.40;;;;;;5056118;28;20846;-70
2021/04/29 01:18:39;;;;;;;8.97;5.63;;;15.70;46.90;;;;;;5055673;28;20860;-70
2021/04/29 01:21:12;;;;;;;10.70;6.57;;;15.60;47.40;;;;;;5056034;28;20452;-70
2021/04/29 01:23:50;;;;;;;8.33;6.33;;;15.50;47.70;;;;;;5055963;28;20473;-70
2021/04/29 01:26:20;;;;;;;12.10;6.07;;;15.50;48.20;;;;;;5055239;28;20430;-71
2021/04/29 01:28:48;;;;;;;8.60;6.10;;;15.40;48.40;;;;;;5055645;28;20452;-70
2021/04/29 01:31:16;;;;;;;9.67;5.60;;;15.40;49.00;;;;;;5055791;28;20441;-70
2021/04/29 01:33:42;;;;;;;9.03;6.53;;;15.30;49.20;;;;;;5055404;28;20885;-70
2021/04/29 01:36:09;;;;;;;7.47;6.47;;;15.30;49.50;;;;;;5055408;28;20962;-71
2021/04/29 01:38:37;;;;;;;9.87;6.37;;;15.20;49.50;;;;;;5055608;28;20445;-70
2021/04/29 01:41:04;;;;;;;7.53;6.63;;;15.20;50.10;;;;;;5055499;28;20450;-70
2021/04/29 01:43:31;;;;;;;8.90;6.40;;;15.20;50.00;;;;;;5055506;28;20473;-70
2021/04/29 01:45:58;;;;;;;8.63;6.33;;;15.20;49.90;;;;;;5055162;28;20959;-70
2021/04/29 01:48:25;;;;;;;11.43;7.27;;;15.30;50.20;;;;;;5055614;28;20449;-70
2021/04/29 01:50:51;;;;;;;6.87;6.13;;;15.30;50.10;;;;;;5055384;28;20449;-70
2021/04/29 01:53:18;;;;;;;12.27;6.63;;;15.30;49.80;;;;;;5055121;28;20500;-70
2021/04/29 01:55:45;;;;;;;7.67;6.97;;;15.30;50.20;;;;;;5055304;28;20426;-70
2021/04/29 01:58:12;;;;;;;8.50;6.80;;;15.30;50.30;;;;;;5055250;28;20447;-71
2021/04/29 02:00:38;;;;;;;8.77;7.23;;;15.30;50.60;;;;;;5054870;28;21021;-70
2021/04/29 02:03:05;;;;;;;8.93;7.27;;;15.20;50.80;;;;;;5056141;28;20462;-70
2021/04/29 02:05:31;;;;;;;10.57;7.30;;;15.20;50.90;;;;;;5054904;28;20967;-70
2021/04/29 02:07:58;;;;;;;7.20;6.60;;;15.20;51.10;;;;;;5055407;28;20450;-70
2021/04/29 02:10:25;;;;;;;7.87;7.10;;;15.20;51.40;;;;;;5055082;28;20485;-70
2021/04/29 02:12:54;;;;;;;16.13;7.23;;;15.10;52.00;;;;;;5054955;28;20819;-70
2021/04/29 02:15:24;;;;;;;8.57;7.77;;;15.10;51.70;;;;;;5055104;28;20446;-70
2021/04/29 02:17:56;;;;;;;8.10;7.17;;;15.10;52.00;;;;;;5054937;28;20445;-70
2021/04/29 02:20:25;;;;;;;8.83;7.37;;;15.00;52.00;;;;;;5055405;28;20477;-70
2021/04/29 02:22:53;;;;;;;11.10;8.30;;;15.00;52.20;;;;;;5055807;28;20465;-70
2021/04/29 02:25:24;;;;;;;9.90;7.33;;;15.00;52.50;;;;;;5054951;28;20456;-70
2021/04/29 02:27:51;;;;;;;12.90;8.17;;;14.90;52.40;;;;;;5054529;28;20870;-70
2021/04/29 02:30:18;;;;;;;12.23;7.97;;;15.00;52.70;;;;;;5055578;28;20472;-70
2021/04/29 02:32:45;;;;;;;9.73;7.60;;;14.90;52.80;;;;;;5054649;28;20473;-70
2021/04/29 02:35:13;;;;;;;10.13;8.07;;;14.90;53.10;;;;;;5054651;28;20441;-70
2021/04/29 02:37:42;;;;;;;8.63;7.40;;;14.80;53.10;;;;;;5053912;28;20450;-70
2021/04/29 02:40:10;;;;;;;9.67;7.87;;;14.80;53.30;;;;;;5054664;28;20474;-70
2021/04/29 02:42:38;;;;;;;7.73;6.93;;;14.80;53.70;;;;;;5054392;28;20492;-70
2021/04/29 02:45:07;;;;;;;17.87;8.20;;;14.70;53.80;;;;;;5054523;28;20445;-70
2021/04/29 02:47:33;;;;;;;11.50;8.03;;;14.50;54.10;;;;;;5054438;28;20454;-71
2021/04/29 02:50:00;;;;;;;9.60;7.93;;;14.40;54.50;;;;;;5054351;28;20452;-70
2021/04/29 02:52:26;;;;;;;10.73;7.73;;;14.30;55.00;;;;;;5054288;28;20465;-70
2021/04/29 02:54:54;;;;;;;12.07;7.57;;;14.30;55.10;;;;;;5054137;28;20462;-70
2021/04/29 02:57:21;;;;;;;9.40;7.10;;;14.30;54.90;;;;;;5054059;28;20935;-70
2021/04/29 02:59:48;;;;;;;7.47;6.50;;;14.30;55.20;;;;;;5054019;28;20473;-70
2021/04/29 03:02:14;;;;;;;14.43;8.33;;;14.30;55.20;;;;;;5054204;28;20472;-70
2021/04/29 03:04:40;;;;;;;11.27;7.57;;;14.30;55.40;;;;;;5053835;28;21038;-70
2021/04/29 03:07:07;;;;;;;10.70;8.40;;;14.20;56.00;;;;;;5054410;28;20441;-70
2021/04/29 03:09:33;;;;;;;15.83;8.43;;;14.20;56.20;;;;;;5053730;28;20935;-70
2021/04/29 03:12:00;;;;;;;13.73;8.77;;;14.10;56.30;;;;;;5053936;28;20496;-70
2021/04/29 03:14:26;;;;;;;11.17;8.80;;;13.90;56.70;;;;;;5053929;28;20445;-70
2021/04/29 03:16:52;;;;;;;9.23;8.43;;;13.90;57.00;;;;;;5053961;28;20506;-70
2021/04/29 03:19:19;;;;;;;14.83;9.50;;;13.80;57.30;;;;;;5054173;28;20465;-70
2021/04/29 03:21:45;;;;;;;14.90;11.30;;;13.70;57.80;;;;;;5054391;28;20449;-70
2021/04/29 03:24:11;;;;;;;15.40;9.20;;;13.70;57.60;;;;;;5053913;28;20450;-70
2021/04/29 03:26:37;;;;;;;19.33;10.47;;;13.70;57.70;;;;;;5053801;28;20430;-70
2021/04/29 03:29:04;;;;;;;19.13;9.93;;;13.70;57.80;;;;;;5053386;28;20516;-70
2021/04/29 03:31:31;;;;;;;11.90;9.97;;;13.60;58.20;;;;;;5054184;28;20445;-70
2021/04/29 03:33:57;;;;;;;11.67;9.80;;;13.50;58.50;;;;;;5053164;28;20971;-70
2021/04/29 03:36:23;;;;;;;14.90;11.77;;;13.40;58.80;;;;;;5053558;28;20452;-70
2021/04/29 03:38:49;;;;;;;14.37;10.23;;;13.40;58.80;;;;;;5053070;28;20445;-70
2021/04/29 03:41:15;;;;;;;14.90;11.83;;;13.40;59.20;;;;;;5053458;28;20524;-70
2021/04/29 03:43:42;;;;;;;16.53;10.47;;;13.30;59.30;;;;;;5053314;28;20476;-70
2021/04/29 03:46:09;;;;;;;18.53;11.30;;;13.30;59.60;;;;;;5053367;28;20821;-70
2021/04/29 03:48:35;;;;;;;13.97;10.30;;;13.30;60.20;;;;;;5053340;28;20813;-70
2021/04/29 03:51:01;;;;;;;11.27;10.17;;;13.20;59.70;;;;;;5052768;28;20456;-70
2021/04/29 03:53:27;;;;;;;20.27;10.93;;;13.20;60.10;;;;;;5053623;28;20491;-70
2021/04/29 03:55:53;;;;;;;13.00;11.33;;;13.20;60.20;;;;;;5053696;28;20460;-70
2021/04/29 03:58:20;;;;;;;14.93;11.43;;;13.10;60.80;;;;;;5053421;28;20450;-70
2021/04/29 04:00:46;;;;;;;18.63;11.33;;;13.00;61.20;;;;;;5053186;28;20462;-70
2021/04/29 04:03:13;;;;;;;13.17;11.70;;;13.00;61.40;;;;;;5053116;28;20470;-70
2021/04/29 04:05:39;;;;;;;17.87;12.33;;;13.10;61.50;;;;;;5052989;28;20453;-70
2021/04/29 04:08:05;;;;;;;14.63;13.03;;;13.10;61.40;;;;;;5053222;28;20555;-70
2021/04/29 04:10:32;;;;;;;19.67;14.63;;;13.00;61.60;;;;;;5053016;28;20445;-70
2021/04/29 04:12:58;;;;;;;23.50;12.73;;;12.90;61.80;;;;;;5053028;28;20469;-70
2021/04/29 04:15:24;;;;;;;16.07;13.23;;;12.90;62.20;;;;;;5053128;28;20467;-71
2021/04/29 04:17:50;;;;;;;20.03;15.17;;;12.90;62.70;;;;;;5053173;28;20495;-70
2021/04/29 04:20:18;;;;;;;18.77;13.60;;;12.80;62.70;;;;;;5053014;28;20485;-70
2021/04/29 04:22:45;;;;;;;16.63;13.60;;;12.80;63.60;;;;;;5053304;28;20461;-70
2021/04/29 04:25:12;;;;;;;20.90;14.17;;;12.80;63.10;;;;;;5052769;28;20503;-71
2021/04/29 04:27:38;;;;;;;21.73;15.20;;;12.80;63.30;;;;;;5052925;28;20503;-71
2021/04/29 04:30:05;;;;;;;19.87;14.60;;;12.80;63.10;;;;;;5053043;28;20446;-70
2021/04/29 04:32:31;;;;;;;19.10;16.13;;;12.80;63.00;;;;;;5052883;28;20465;-71
2021/04/29 04:34:57;;;;;;;17.50;15.70;;;12.80;63.00;;;;;;5052869;28;20503;-71
2021/04/29 04:37:24;;;;;;;19.80;16.47;;;12.70;63.10;;;;;;5052761;28;20835;-70
2021/04/29 04:39:51;;;;;;;19.00;15.87;;;12.80;63.40;;;;;;5052804;28;20484;-70
2021/04/29 04:42:17;;;;;;;22.73;16.70;;;12.70;63.20;;;;;;5052548;28;20998;-71
2021/04/29 04:44:43;;;;;;;22.70;16.23;;;12.50;63.50;;;;;;5052957;28;20449;-70
2021/04/29 04:47:09;;;;;;;25.53;18.37;;;12.40;64.20;;;;;;5053173;28;20441;-70
2021/04/29 04:49:35;;;;;;;25.63;19.10;;;12.30;64.60;;;;;;5052824;28;20446;-70
2021/04/29 04:52:02;;;;;;;23.80;18.20;;;12.20;64.90;;;;;;5052408;28;20461;-70
2021/04/29 04:54:29;;;;;;;22.03;19.50;;;12.20;65.50;;;;;;5052558;28;20543;-71
2021/04/29 04:56:55;;;;;;;23.00;18.60;;;12.20;65.40;;;;;;5052693;28;20486;-70
2021/04/29 04:59:21;;;;;;;27.43;20.00;;;12.30;65.10;;;;;;5052572;28;20543;-70
2021/04/29 05:01:48;;;;;;;27.50;19.30;;;12.20;64.70;;;;;;5054854;28;20444;-70
2021/04/29 05:04:14;;;;;;;28.43;20.50;;;12.20;65.20;;;;;;5056383;28;20875;-71
2021/04/29 05:06:40;;;;;;;38.37;23.20;;;12.20;64.70;;;;;;5056208;28;20441;-70
2021/04/29 05:09:06;;;;;;;37.10;23.47;;;12.20;65.00;;;;;;5056246;28;20447;-72
2021/04/29 05:11:34;;;;;;;28.30;21.60;;;12.10;64.70;;;;;;5056294;28;20433;-71
2021/04/29 05:14:00;;;;;;;33.40;21.67;;;12.10;64.80;;;;;;5056156;28;20472;-71
2021/04/29 05:16:26;;;;;;;33.90;23.20;;;12.10;65.20;;;;;;5055774;28;20935;-71
2021/04/29 05:18:53;;;;;;;28.40;22.10;;;12.00;65.50;;;;;;5056048;28;20441;-72
2021/04/29 05:21:19;;;;;;;32.67;23.50;;;11.90;65.60;;;;;;5056095;28;20441;-70
2021/04/29 05:23:46;;;;;;;38.23;25.57;;;11.70;66.30;;;;;;5055928;28;20468;-70
2021/04/29 05:26:12;;;;;;;29.93;23.20;;;11.70;67.10;;;;;;5055959;28;20503;-71
2021/04/29 05:28:39;;;;;;;31.37;24.57;;;11.60;67.50;;;;;;5055912;28;20452;-70
2021/04/29 05:31:05;;;;;;;29.10;22.70;;;11.70;67.80;;;;;;5055930;28;20428;-70
2021/04/29 05:33:32;;;;;;;28.77;22.83;;;11.70;67.30;;;;;;5055794;28;20465;-71
2021/04/29 05:35:58;;;;;;;29.90;23.27;;;11.70;67.30;;;;;;5055703;28;20449;-70
2021/04/29 05:38:24;;;;;;;27.33;23.67;;;11.80;67.40;;;;;;5055334;28;21001;-70
2021/04/29 05:40:50;;;;;;;25.90;22.87;;;11.80;68.30;;;;;;5055547;28;20481;-71
2021/04/29 05:43:16;;;;;;;32.43;24.00;;;11.80;67.90;;;;;;5055654;28;20461;-70
2021/04/29 05:45:43;;;;;;;27.97;24.97;;;11.80;67.60;;;;;;5055679;28;20522;-71
2021/04/29 05:48:10;;;;;;;27.87;23.03;;;11.90;67.40;;;;;;5055749;28;20449;-70
2021/04/29 05:50:36;;;;;;;34.37;24.20;;;11.90;67.20;;;;;;5055591;28;20519;-71
2021/04/29 05:53:02;;;;;;;32.30;24.70;;;11.90;67.40;;;;;;5055459;28;20462;-71
2021/04/29 05:55:29;;;;;;;30.87;24.80;;;11.80;67.70;;;;;;5055062;28;20466;-71
2021/04/29 05:57:59;;;;;;;29.23;25.13;;;11.80;67.60;;;;;;5055476;28;20814;-71
2021/04/29 06:00:26;;;;;;;30.83;25.20;;;11.90;67.70;;;;;;5055500;28;20462;-70
2021/04/29 06:02:55;;;;;;;29.57;25.50;;;11.90;67.50;;;;;;5055380;28;20469;-70
2021/04/29 06:05:21;;;;;;;33.43;26.10;;;11.90;67.30;;;;;;5055384;28;20479;-71
2021/04/29 06:07:54;;;;;;;37.97;25.80;;;11.80;67.00;;;;;;5055020;28;20910;-70
2021/04/29 06:10:20;;;;;;;37.43;27.10;;;11.80;67.30;;;;;;5054975;28;20429;-71
2021/04/29 06:12:47;;;;;;;32.40;25.60;;;11.80;67.00;;;;;;5054506;28;20465;-70
2021/04/29 06:15:13;;;;;;;35.10;28.10;;;11.70;67.50;;;;;;5055132;28;20520;-70
2021/04/29 06:17:39;;;;;;;31.67;25.33;;;11.80;67.90;;;;;;5055202;28;20437;-70
2021/04/29 06:20:08;;;;;;;32.77;26.90;;;11.80;67.10;;;;;;5054712;28;20990;-71
2021/04/29 06:22:34;;;;;;;32.80;28.50;;;11.80;68.60;;;;;;5054604;28;20975;-70
2021/04/29 06:25:00;;;;;;;40.93;27.83;;;11.80;68.90;;;;;;5054925;28;20444;-70
2021/04/29 06:27:27;;;;;;;35.30;28.00;;;11.80;69.20;;;;;;5054879;28;20907;-70
2021/04/29 06:29:53;;;;;;;34.13;29.30;;;11.80;69.10;;;;;;5054584;28;20445;-71
2021/04/29 06:32:19;;;;;;;39.30;29.23;;;11.80;69.30;;;;;;5054675;28;20861;-71
2021/04/29 06:34:46;;;;;;;40.10;31.73;;;11.80;70.20;;;;;;5054446;28;20438;-70
2021/04/29 06:37:13;;;;;;;38.20;32.30;;;11.80;70.70;;;;;;5054731;28;20430;-70
2021/04/29 06:39:40;;;;;;;40.20;32.00;;;12.00;70.70;;;;;;5054588;28;20469;-71
2021/04/29 06:42:06;;;;;;;43.90;33.87;;;12.00;71.40;;;;;;5054555;28;20465;-71
2021/04/29 06:44:32;;;;;;;37.37;33.43;;;12.10;71.30;;;;;;5054499;28;20441;-70
2021/04/29 06:46:59;;;;;;;45.20;34.73;;;12.20;71.20;;;;;;5055406;28;20429;-70
2021/04/29 06:51:53;;;;;;;44.83;36.40;;;12.20;71.20;;;;;;5092226;28;20468;-70
2021/04/29 06:54:21;;;;;;;42.63;36.00;;;12.20;72.00;;;;;;5094597;28;20794;-70
2021/04/29 06:56:47;;;;;;;45.90;37.00;;;12.30;72.10;;;;;;5094831;28;20786;-70
2021/04/29 06:59:13;;;;;;;54.47;41.27;;;12.40;71.70;;;;;;5094405;28;20459;-70
2021/04/29 07:01:40;;;;;;;54.20;43.93;;;12.50;70.90;;;;;;5094510;28;20446;-70
2021/04/29 07:04:06;;;;;;;49.30;43.70;;;12.40;71.00;;;;;;5094518;28;20428;-70
2021/04/29 07:06:32;;;;;;;54.80;44.30;;;12.40;71.50;;;;;;5095014;28;20431;-70
2021/04/29 07:08:59;;;;;;;53.07;44.13;;;12.40;71.80;;;;;;5094425;28;20459;-70
2021/04/29 07:11:27;;;;;;;57.73;44.87;;;12.30;72.20;;;;;;5094337;28;20459;-70
2021/04/29 07:13:53;;;;;;;53.93;45.70;;;12.30;71.60;;;;;;5093977;28;20442;-70
2021/04/29 07:16:20;;;;;;;54.40;44.90;;;12.30;71.80;;;;;;5093823;28;20428;-70
2021/04/29 07:18:46;;;;;;;71.83;46.43;;;12.30;72.10;;;;;;5094199;28;20907;-70
2021/04/29 07:21:12;;;;;;;58.93;46.63;;;12.40;70.80;;;;;;5093848;28;20520;-71
2021/04/29 07:23:38;;;;;;;59.77;45.00;;;12.40;70.60;;;;;;5093711;28;20412;-71
2021/04/29 07:26:05;;;;;;;66.97;45.67;;;12.40;70.20;;;;;;5093206;28;20444;-70
2021/04/29 07:28:32;;;;;;;72.67;48.47;;;12.50;69.70;;;;;;5093966;28;20475;-70
2021/04/29 07:30:58;;;;;;;65.83;43.87;;;12.60;69.90;;;;;;5093961;28;20796;-70
2021/04/29 07:33:24;;;;;;;65.70;44.20;;;12.60;68.50;;;;;;5093963;28;20484;-70
2021/04/29 07:35:51;;;;;;;58.67;42.23;;;12.70;68.00;;;;;;5093694;28;20454;-70
2021/04/29 07:38:17;;;;;;;67.57;45.07;;;12.70;68.10;;;;;;5093853;28;20531;-70
2021/04/29 07:40:43;;;;;;;66.13;46.07;;;12.60;68.20;;;;;;5093782;28;20513;-70
2021/04/29 07:43:10;;;;;;;55.23;43.27;;;12.60;67.80;;;;;;5093831;28;20505;-70
2021/04/29 07:45:37;;;;;;;60.67;44.13;;;12.60;68.30;;;;;;5093766;28;20452;-70
2021/04/29 07:48:04;;;;;;;65.37;44.03;;;12.60;68.70;;;;;;5093961;28;20821;-71
2021/04/29 07:50:31;;;;;;;76.33;41.97;;;12.70;69.10;;;;;;5093474;28;20452;-71
2021/04/29 07:52:57;;;;;;;54.30;43.90;;;12.80;67.60;;;;;;5093693;28;20539;-70
2021/04/29 07:55:24;;;;;;;57.23;43.30;;;13.00;67.30;;;;;;5093909;28;20432;-70
2021/04/29 07:57:50;;;;;;;59.43;42.00;;;13.20;66.10;;;;;;5093582;28;20517;-70
2021/04/29 08:00:17;;;;;;;52.63;39.90;;;13.20;64.90;;;;;;5093543;28;20505;-70
2021/04/29 08:02:44;;;;;;;62.40;42.47;;;13.20;64.90;;;;;;5093755;28;20451;-70
2021/04/29 08:05:12;;;;;;;61.57;43.03;;;13.30;65.30;;;;;;5093687;28;20486;-71
2021/04/29 08:07:38;;;;;;;59.87;42.40;;;13.40;65.40;;;;;;5093487;28;20513;-71
2021/04/29 08:10:06;;;;;;;51.83;41.00;;;13.60;63.90;;;;;;5093265;28;20958;-70
2021/04/29 08:12:32;;;;;;;48.80;40.30;;;13.70;63.20;;;;;;5094273;28;20456;-70
2021/04/29 08:14:59;;;;;;;49.00;39.53;;;13.80;63.30;;;;;;5093457;28;20865;-70
2021/04/29 08:17:26;;;;;;;49.50;40.10;;;14.00;61.90;;;;;;5093680;28;20466;-70
2021/04/29 08:19:54;;;;;;;54.83;41.50;;;14.10;61.50;;;;;;5093346;28;20471;-70
2021/04/29 08:22:20;;;;;;;49.10;38.97;;;14.20;61.10;;;;;;5093407;28;20432;-70
2021/04/29 08:24:46;;;;;;;55.20;40.90;;;14.30;60.20;;;;;;5093458;28;20428;-70
2021/04/29 08:27:13;;;;;;;51.30;40.77;;;14.10;60.60;;;;;;5093052;28;21015;-70
2021/04/29 08:29:39;;;;;;;54.53;39.10;;;14.00;60.30;;;;;;5092880;28;20984;-70
2021/04/29 08:32:06;;;;;;;46.73;38.30;;;13.90;61.50;;;;;;5093372;28;20447;-70
2021/04/29 08:34:32;;;;;;;51.23;38.00;;;14.00;61.10;;;;;;5093535;28;20459;-70
2021/04/29 08:37:00;;;;;;;53.67;39.70;;;14.00;60.00;;;;;;5095429;28;20432;-70
2021/04/29 08:39:26;;;;;;;47.13;38.23;;;13.90;59.20;;;;;;5096881;28;20977;-70
2021/04/29 08:41:53;;;;;;;42.60;36.90;;;13.80;59.40;;;;;;5097253;28;20428;-70
2021/04/29 08:44:19;;;;;;;52.03;38.80;;;13.80;59.60;;;;;;5097167;28;20801;-70
2021/04/29 08:46:45;;;;;;;47.10;36.53;;;13.90;59.80;;;;;;5096849;28;20889;-70
2021/04/29 08:49:11;;;;;;;40.37;36.17;;;14.00;59.70;;;;;;5096716;28;20475;-70
2021/04/29 08:51:38;;;;;;;44.87;37.00;;;14.00;59.60;;;;;;5096827;28;20456;-70
2021/04/29 08:54:05;;;;;;;43.90;36.07;;;14.00;59.90;;;;;;5097281;28;20435;-70
2021/04/29 08:56:31;;;;;;;44.27;35.00;;;14.00;60.30;;;;;;5096887;28;20428;-71
2021/04/29 08:58:59;;;;;;;39.50;35.37;;;14.10;58.90;;;;;;5096846;28;20467;-71
2021/04/29 09:01:37;;;;;;;42.80;37.37;;;14.30;59.70;;;;;;5096794;28;20489;-71
2021/04/29 09:04:09;;;;;;;49.90;35.80;;;14.50;58.10;;;;;;5096548;28;20427;-70
2021/04/29 09:06:35;;;;;;;40.53;35.20;;;14.60;58.30;;;;;;5096781;28;20438;-70
2021/04/29 09:09:01;;;;;;;40.40;36.00;;;14.80;58.10;;;;;;5096764;28;20448;-70
2021/04/29 09:11:28;;;;;;;40.50;33.30;;;14.90;57.50;;;;;;5096900;28;20471;-70
2021/04/29 09:13:57;;;;;;;41.20;34.83;;;14.80;56.40;;;;;;5096860;28;20564;-70
2021/04/29 09:16:23;;;;;;;38.37;31.07;;;14.70;57.50;;;;;;5097259;28;20420;-70
2021/04/29 09:18:49;;;;;;;37.93;30.77;;;14.60;56.30;;;;;;5096866;28;20826;-70
2021/04/29 09:21:16;;;;;;;33.07;29.47;;;14.70;56.40;;;;;;5096546;28;20459;-70
2021/04/29 09:23:45;;;;;;;40.00;33.30;;;14.90;57.00;;;;;;5097172;28;20459;-71
2021/04/29 09:26:13;;;;;;;34.63;29.53;;;15.20;57.40;;;;;;5096533;28;20789;-71
2021/04/29 09:28:43;;;;;;;39.03;29.17;;;15.20;54.90;;;;;;5096129;28;20444;-71
2021/04/29 09:31:12;;;;;;;32.47;28.10;;;15.10;54.40;;;;;;5096484;28;20451;-71
2021/04/29 09:33:40;;;;;;;31.77;25.77;;;15.10;56.00;;;;;;5096180;28;20451;-71
2021/04/29 09:36:08;;;;;;;37.33;27.57;;;15.00;53.80;;;;;;5095949;28;20845;-71
2021/04/29 09:38:37;;;;;;;30.67;27.60;;;15.00;54.10;;;;;;5096164;28;20585;-71
2021/04/29 09:41:05;;;;;;;31.30;27.90;;;15.10;53.90;;;;;;5096366;28;20468;-70
2021/04/29 09:43:32;;;;;;;27.93;25.03;;;15.30;54.20;;;;;;5096265;28;20419;-71
2021/04/29 09:46:00;;;;;;;27.27;24.67;;;15.50;53.30;;;;;;5096062;28;20428;-71
2021/04/29 09:48:39;;;;;;;28.20;24.83;;;15.60;51.70;;;;;;5094462;28;20504;-71
2021/04/29 09:51:07;;;;;;;27.70;22.50;;;15.70;52.40;;;;;;5095647;28;20550;-71
2021/04/29 09:53:42;;;;;;;24.30;21.90;;;15.80;51.50;;;;;;5095823;28;20455;-71
2021/04/29 09:56:10;;;;;;;29.33;23.80;;;15.80;49.20;;;;;;5095794;28;20439;-71
2021/04/29 09:58:37;;;;;;;25.27;22.17;;;15.80;50.30;;;;;;5095608;28;20475;-71
2021/04/29 10:01:06;;;;;;;23.83;21.47;;;15.70;50.10;;;;;;5095675;28;20472;-71
2021/04/29 10:03:33;;;;;;;27.07;23.43;;;15.50;49.90;;;;;;5095581;28;20940;-71
2021/04/29 10:06:00;;;;;;;26.73;23.90;;;15.20;50.40;;;;;;5095589;28;20444;-71
2021/04/29 10:08:27;;;;;;;25.70;22.90;;;15.30;52.20;;;;;;5095632;28;20564;-71
2021/04/29 10:10:56;;;;;;;26.83;23.43;;;15.30;50.40;;;;;;5095171;28;20428;-71
2021/04/29 10:13:28;;;;;;;24.57;21.93;;;15.60;51.70;;;;;;5095100;28;20425;-71
2021/04/29 10:15:56;;;;;;;24.50;21.53;;;16.00;51.60;;;;;;5095067;28;20912;-71
2021/04/29 10:18:24;;;;;;;24.03;21.47;;;16.20;49.80;;;;;;5095316;28;20474;-71
2021/04/29 10:20:52;;;;;;;23.47;21.17;;;16.40;49.60;;;;;;5095231;28;20460;-71
2021/04/29 10:23:20;;;;;;;24.37;21.93;;;16.90;48.30;;;;;;5095298;28;20491;-71
2021/04/29 10:25:50;;;;;;;22.70;20.20;;;17.10;48.40;;;;;;5095168;28;20820;-71
2021/04/29 10:28:29;;;;;;;28.00;21.90;;;16.80;46.80;;;;;;5095070;28;20973;-71
2021/04/29 10:30:55;;;;;;;21.87;19.50;;;16.70;46.50;;;;;;5095103;28;20436;-71
2021/04/29 10:33:23;;;;;;;21.63;19.43;;;16.60;46.30;;;;;;5095117;28;20439;-71
2021/04/29 10:35:54;;;;;;;23.57;21.10;;;16.30;46.50;;;;;;5095047;28;20505;-71
2021/04/29 10:38:30;;;;;;;33.57;20.83;;;16.10;47.40;;;;;;5094998;28;20463;-71
2021/04/29 10:40:58;;;;;;;29.20;22.60;;;15.80;47.80;;;;;;5094593;28;20913;-71
2021/04/29 10:43:30;;;;;;;27.40;21.27;;;15.60;49.00;;;;;;5095426;28;20420;-71
2021/04/29 10:45:56;;;;;;;29.87;21.50;;;15.10;50.20;;;;;;5094621;28;20412;-71
2021/04/29 10:48:26;;;;;;;56.90;24.40;;;14.80;50.40;;;;;;5094449;28;20605;-71
2021/04/29 10:50:53;;;;;;;57.13;26.60;;;14.50;51.80;;;;;;5094459;28;20475;-71
2021/04/29 10:53:28;;;;;;;51.53;25.50;;;14.20;54.00;;;;;;5094693;28;20432;-71
2021/04/29 10:56:04;;;;;;;98.20;20.47;;;14.10;55.40;;;;;;5094703;28;20427;-70
2021/04/29 10:58:31;;;;;;;65.70;18.13;;;13.40;56.70;;;;;;5094549;28;20467;-66
2021/04/29 11:01:02;;;;;;;47.40;16.20;;;12.50;62.30;;;;;;5094140;28;20535;-68
2021/04/29 11:03:31;;;;;;;27.20;15.80;;;12.10;67.00;;;;;;5094526;28;20424;-68
2021/04/29 11:06:15;;;;;;;27.40;16.37;;;11.80;69.30;;;;;;5094242;28;20434;-69
2021/04/29 11:08:43;;;;;;;17.83;13.80;;;11.90;72.20;;;;;;5094439;28;20474;-69
2021/04/29 11:11:27;;;;;;;21.83;13.50;;;12.20;72.80;;;;;;5094348;28;20818;-71
2021/04/29 11:14:01;;;;;;;13.57;12.30;;;12.90;72.00;;;;;;5094457;28;20523;-70
2021/04/29 11:16:28;;;;;;;14.60;12.90;;;14.20;67.90;;;;;;5094023;28;20424;-70
2021/04/29 11:18:55;;;;;;;14.87;13.40;;;15.40;63.60;;;;;;5094274;28;20468;-71
2021/04/29 11:21:26;;;;;;;14.33;12.93;;;16.40;56.80;;;;;;5094245;28;20460;-71
2021/04/29 11:23:52;;;;;;;15.43;13.87;;;16.70;53.70;;;;;;5094147;28;20432;-71
2021/04/29 11:26:20;;;;;;;17.87;13.10;;;17.00;54.00;;;;;;5094089;28;20519;-71
2021/04/29 11:28:48;;;;;;;17.93;14.00;;;16.90;54.60;;;;;;5093830;28;20977;-71
2021/04/29 11:31:17;;;;;;;15.30;13.77;;;16.30;54.30;;;;;;5094404;28;20925;-71
2021/04/29 11:33:46;;;;;;;13.47;12.23;;;15.70;57.00;;;;;;5093823;28;20440;-71
2021/04/29 11:36:19;;;;;;;13.50;12.20;;;15.00;57.60;;;;;;5094460;28;20533;-71
2021/04/29 11:38:49;;;;;;;14.83;12.50;;;14.60;58.50;;;;;;5094481;28;20463;-71
2021/04/29 11:41:16;;;;;;;19.30;12.27;;;14.10;58.10;;;;;;5094089;28;20459;-70
2021/04/29 11:43:42;;;;;;;20.90;11.33;;;13.70;57.60;;;;;;5093902;28;20482;-70
2021/04/29 11:46:19;;;;;;;20.43;11.27;;;13.80;57.40;;;;;;5094078;28;20448;-70
2021/04/29 11:48:54;;;;;;;16.43;12.10;;;13.60;58.40;;;;;;5094118;28;20471;-70
2021/04/29 11:51:21;;;;;;;13.40;11.00;;;13.40;58.70;;;;;;5093579;28;20455;-70
2021/04/29 11:53:48;;;;;;;16.07;10.43;;;13.20;58.60;;;;;;5094808;28;20432;-70
2021/04/29 11:56:15;;;;;;;13.10;11.07;;;13.10;59.50;;;;;;5093543;28;20435;-70
2021/04/29 11:58:41;;;;;;;18.57;11.23;;;13.30;60.60;;;;;;5093627;28;20459;-70
2021/04/29 12:01:13;;;;;;;14.40;10.80;;;13.40;59.10;;;;;;5093684;28;20487;-70
2021/04/29 12:03:39;;;;;;;13.80;10.70;;;12.90;58.00;;;;;;5093650;28;20458;-70
2021/04/29 12:06:06;;;;;;;10.70;9.70;;;12.50;58.60;;;;;;5093737;28;20448;-71
2021/04/29 12:08:35;;;;;;;10.90;9.90;;;12.50;59.80;;;;;;5093531;28;20528;-71
2021/04/29 12:11:02;;;;;;;14.43;11.67;;;12.70;59.40;;;;;;5094610;28;20430;-71
2021/04/29 12:13:31;;;;;;;11.33;10.23;;;12.60;59.80;;;;;;5097876;28;20430;-70
2021/04/29 12:15:58;;;;;;;12.00;10.90;;;12.50;59.40;;;;;;5097930;28;20427;-72
2021/04/29 12:18:25;;;;;;;13.63;11.27;;;12.40;59.60;;;;;;5097654;28;20469;-71
2021/04/29 12:20:51;;;;;;;12.20;9.87;;;12.20;60.20;;;;;;5097322;28;20996;-71
2021/04/29 12:23:18;;;;;;;15.83;9.70;;;12.10;60.50;;;;;;5097741;28;20921;-70
2021/04/29 12:26:00;;;;;;;10.80;8.90;;;11.90;60.00;;;;;;5097850;28;20436;-70
2021/04/29 12:28:31;;;;;;;12.20;9.03;;;11.80;61.30;;;;;;5097967;28;20817;-70
2021/04/29 12:30:58;;;;;;;10.33;9.33;;;11.60;63.20;;;;;;5098939;28;20428;-71
2021/04/29 12:33:24;;;;;;;11.37;10.27;;;11.40;65.50;;;;;;5098332;28;20437;-71
2021/04/29 12:35:51;;;;;;;9.90;9.00;;;11.30;66.20;;;;;;5097807;28;20428;-71